Station info - map view · info · telemetry · weather · raw · status · beacons · messages · bulletins · browse · moving · my account
Callsign, ship name or locator: Clear       
It is possible to search using wildcards (*?) after a prefix. Example: OH*
APRS station DJ8HS-9 - show graphs
Map loading...
Comment: Hermann on Tour
Mic-E message: En route
Location: 49°58.23' N 8°23.51' E - locator JN49EX72AW - show map - static map
1.9 miles Southeast bearing 146° from Bischofsheim, Regierungsbezirk Darmstadt, Hesse, Germany [?]
2.4 miles Southwest bearing 232° from Rüsselsheim, Hesse, Germany
16.4 miles Southwest bearing 232° from Frankfurt am Main, Regierungsbezirk Darmstadt, Hesse, Germany
91.9 miles Southeast bearing 136° from Köln (Koeln), Regierungsbezirk Köln, North Rhine-Westphalia, Germany
Last position: 2016-09-01 13:50:32 EDT (26d 7h54m ago)
2016-09-01 19:50:32 CEST local time at Bischofsheim, Germany [?]
Altitude: 318 ft
Course:
Device: Kenwood: TM-D710 (rig)
Last path: DJ8HS-9>TY5XR3 via WIDE1-1,WIDE2-1,qAR,DB0XIN (good)
Positions stored: 24304
Other SSIDs: DJ8HS DJ8HS-1 DJ8HS-11 DJ8HS-13 DJ8HS-3 DJ8HS-5 DJ8HS-E
Stations near current position of DJ8HS-9 - show more
callsign distance last heard - EDT      callsign distance last heard - EDT
DL1ZBL-940.1 yards 180°2016-09-26 06:20:36 DL1ZBL-185.6 yards 18°2016-09-27 21:41:43
DJ8HS311.8 yards 155°2016-09-22 10:29:57 DL5FM-90.9 miles 16°2016-09-27 13:16:33
DH4FAJ-91.1 miles 36°2016-09-24 04:55:04 DB7JLN-92.0 miles 31°2016-09-27 17:10:41
DB0XIN-63.1 miles 122°2016-09-27 21:40:00 DL7FAT3.1 miles 122°2016-09-27 21:36:37
DB0XIN3.1 miles 122°2016-09-27 21:36:39 DL4BSB3.1 miles 93°2016-09-27 07:28:56
DF3IY-93.4 miles 40°2016-09-01 18:41:39 DL1JU-133.8 miles 324°2016-09-26 01:30:35
DL1JU-93.8 miles 325°2016-09-27 10:50:29 DD9WL-54.1 miles 211°2016-09-27 21:42:15
DH2PC-74.5 miles 218°2016-09-07 07:23:16 FFW Gerau4.7 miles 124°2016-09-27 21:29:54
THW-OV GG4.7 miles 136°2016-09-27 21:29:54 DB5PJ5.0 miles 265°2016-09-05 09:03:11
DO2FMD-95.1 miles 129°2016-09-11 07:11:53 DRK-KV GG5.3 miles 137°2016-09-27 21:29:54
Stations which heard DJ8HS-9 directly on radio –
callsign pkts first heard - EDT last heard longest (tx => rx) longest at - EDT
DB0ZEH 7 2016-09-01 03:19:21 2016-09-01 04:35:36 JO63GI > JO62PW 40.7 miles 134° 2016-09-01 03:25:24
DB0LMM 1 2016-09-01 08:10:44 2016-09-01 08:10:44 JO61AF > JO61EI 17.1 miles 60° 2016-09-01 08:10:44
DB0GIS 10 2016-09-01 11:23:53 2016-09-01 12:12:04 JO40OR > JO40JN 23.6 miles 239° 2016-09-01 11:23:53
DB0MI 2 2016-09-01 11:59:57 2016-09-01 12:20:04 JO40IL > JN49PS 53.8 miles 152° 2016-09-01 11:59:57
DB0KH 17 2016-09-01 10:43:40 2016-09-01 11:49:55 JO40JO > JO40RV 34.8 miles 50° 2016-09-01 11:49:55
DB0GV 3 2016-09-01 12:10:02 2016-09-01 12:50:15 JO40FA > JO40KD 21.1 miles 66° 2016-09-01 12:50:15
DB0KT 23 2016-09-01 10:59:48 2016-09-01 13:35:35 JN49EX > JO40PL 52.9 miles 47° 2016-09-01 13:35:35
DB0IDS 6 2016-09-01 13:02:18 2016-09-01 13:50:33 JN49EX > JO40CF 18.4 miles 340° 2016-09-01 13:50:33
DB0RIE 12 2016-09-01 08:45:07 2016-09-01 09:53:23 JO50UU > JO50NV 26.4 miles 272° 2016-09-01 08:45:07
DB0ASF 6 2016-09-01 11:45:54 2016-09-01 13:20:21 JO40KO > JO40NB 38.4 miles 164° 2016-09-01 11:45:54
DO0MAL 4 2016-09-01 02:43:11 2016-09-01 02:53:12 JO63HM > JO63IS 18.6 miles 9° 2016-09-01 02:43:11
DB0XIN 25 2016-09-01 12:40:13 2016-09-01 13:50:32 JO40GB > JN49FW 7.5 miles 209° 2016-09-01 12:40:13
DB0BAR 11 2016-09-01 04:05:31 2016-09-01 05:07:54 JO62HX > JO62TP 48.4 miles 120° 2016-09-01 04:05:31
DB0HRC-10 2 2016-09-01 08:00:40 2016-09-01 08:18:46 JO51XC > JO61AG 10.3 miles 26° 2016-09-01 08:18:46
DB0LPZ 12 2016-09-01 07:52:34 2016-09-01 08:28:50 JO50WX > JO61FI 33.9 miles 45° 2016-09-01 08:28:50
DB0BOS 8 2016-09-01 12:42:15 2016-09-01 13:32:28 JN49EX > JN49LR 28.3 miles 123° 2016-09-01 13:32:28
DF7PN 4 2016-09-01 12:36:13 2016-09-01 13:32:26 JO40HB > JN49AV 25.7 miles 243° 2016-09-01 12:36:13
DB0ZAV-1 2 2016-09-01 12:16:01 2016-09-01 12:34:12 JO40HB > JO40JF 12.9 miles 38° 2016-09-01 12:34:12
DG1HVL-6 31 2016-09-01 06:00:07 2016-09-01 07:34:31 JO61CP > JO61CU 14.4 miles 5° 2016-09-01 07:34:31
DB0ESA 2 2016-09-01 09:49:21 2016-09-01 10:09:30 JO50HV > JO50DX 14.1 miles 293° 2016-09-01 09:49:21
DB0HDF 7 2016-09-01 08:16:44 2016-09-01 08:57:09 JO51XD > JO50WV 17.4 miles 198° 2016-09-01 08:16:44
DL3ARK 1 2016-09-01 10:33:39 2016-09-01 10:33:39 JO40XW > JO50CT 14.7 miles 135° 2016-09-01 10:33:39
DL4HUF-10 1 2016-09-01 08:24:47 2016-09-01 08:24:47 JO51XB > JO51WL 29.2 miles 354° 2016-09-01 08:24:47
DB0ERZ 3 2016-09-01 08:39:02 2016-09-01 09:09:12 JO50PW > JO60HK 67.6 miles 119° 2016-09-01 09:09:12
DK3RW-2 1 2016-09-01 11:09:51 2016-09-01 11:09:51 JO40RS > JO40LQ 22.3 miles 248° 2016-09-01 11:09:51
DB0FUL 1 2016-09-01 10:29:40 2016-09-01 10:29:40 JO50AX > JO40UM 33.3 miles 206° 2016-09-01 10:29:40
DK3RW-10 3 2016-09-01 11:31:52 2016-09-01 11:53:55 JO40JN > JO40MO 12.0 miles 64° 2016-09-01 11:53:55
DB0FDA 31 2016-09-01 12:01:58 2016-09-01 13:50:33 JO40IK > JN49HU 40.5 miles 184° 2016-09-01 12:01:58
DB0NBB-1 4 2016-09-01 02:25:08 2016-09-01 02:41:10 JO63HM > JO63PN 25.9 miles 80° 2016-09-01 02:41:10
DB0MW 11 2016-09-01 09:43:20 2016-09-01 11:03:50 JO50HV > JO40VU 38.6 miles 263° 2016-09-01 09:43:20
DL1HUB-10 4 2016-09-01 07:36:31 2016-09-01 07:50:34 JO61CK > JO61BM 7.5 miles 323° 2016-09-01 07:50:34
DL2BWO-13 1 2016-09-01 04:55:45 2016-09-01 04:55:45 JO62LL > JO62SQ 28.1 miles 61° 2016-09-01 04:55:45
DL2AJB 15 2016-09-01 09:13:13 2016-09-01 10:25:37 JO50OW > JO50HX 27.8 miles 276° 2016-09-01 09:13:13
DB0LDK 1 2016-09-01 11:47:56 2016-09-01 11:47:56 JO40JO > JO40GM 14.3 miles 249° 2016-09-01 11:47:56
DB0HRF 10 2016-09-01 11:35:54 2016-09-01 13:38:28 JO40MQ > JO40FF 39.6 miles 219° 2016-09-01 11:35:54
DO1AA-10 20 2016-09-01 05:56:07 2016-09-01 07:48:34 JO61CL > JO61FV 30.3 miles 20° 2016-09-01 07:48:34
DF4AE-11 5 2016-09-01 09:05:12 2016-09-01 09:17:13 JO50NW > JO51SA 17.4 miles 69° 2016-09-01 09:17:13
DC4FY-2 4 2016-09-01 10:37:40 2016-09-01 11:23:51 JO40OR > JO40XX 34.8 miles 61° 2016-09-01 11:23:51
DC4FY-1 9 2016-09-01 11:57:56 2016-09-01 12:32:11 JO40HC > JO40HK 23.6 miles 5° 2016-09-01 12:32:11
DB0ERF-10 2 2016-09-01 08:59:10 2016-09-01 09:51:22 JO50HV > JO50MX 20.7 miles 80° 2016-09-01 09:51:22
DL7ATA-15 1 2016-09-01 04:49:45 2016-09-01 04:49:45 JO62LN > JO62ON 11.2 miles 86° 2016-09-01 04:49:45
DL2RXE-10 2 2016-09-01 05:30:02 2016-09-01 05:32:02 JO62JD > JO62MA 14.4 miles 142° 2016-09-01 05:30:02
DB0REI-10 3 2016-09-01 11:29:52 2016-09-01 11:41:54 JO40NR > JO40KO 11.3 miles 236° 2016-09-01 11:29:52

Only position packets which were originated by the station are shown here. The range statistics show some extra long hops, because some digipeaters do not correctly add themselves to the digipeater path. Please check the raw packets.
About this site
This page shows real-time information collected from the Automatic Position Reporting System Internet network (APRS-IS). APRS is used by amateur (ham) radio operators to transmit real-time position information, weather data, telemetry and messages over the radio. A vehicle equipped with a GPS receiver, a VHF transmitter or HF transceiver and a small computer device called a tracker transmits it's location, speed and course in a small data packet, which is then received by a nearby iGate receiving site which forwards the packet on the Internet. Systems connected to the Internet can send information on the APRS-IS without a radio transmitter, or collect and display information transmitted anywhere in the world.
FAQ · Blog · Discussion group · Linking to aprs.fi · AIS sites · Service status · Database statistics · Advertising on aprs.fi · Technical details · API · Change log · Planned changes · Credits and thanks · Terms Of Service · iPhone/iPad APRS